sensor_id;sensor_type;location;lat;lon;timestamp;temperature;humidity
16064;DHT22;8136;53.172;8.256;2023-10-13T00:05:20;14.90;99.90
16064;DHT22;8136;53.172;8.256;2023-10-13T00:08:26;14.90;99.90
16064;DHT22;8136;53.172;8.256;2023-10-13T00:14:46;14.90;99.90
16064;DHT22;8136;53.172;8.256;2023-10-13T00:21:09;15.00;99.90
16064;DHT22;8136;53.172;8.256;2023-10-13T00:27:42;15.10;99.90
16064;DHT22;8136;53.172;8.256;2023-10-13T00:30:31;15.10;99.90
16064;DHT22;8136;53.172;8.256;2023-10-13T00:33:56;15.10;99.90
16064;DHT22;8136;53.172;8.256;2023-10-13T00:36:37;15.20;99.90
16064;DHT22;8136;53.172;8.256;2023-10-13T00:39:33;15.20;99.90
16064;DHT22;8136;53.172;8.256;2023-10-13T00:42:38;15.30;99.90
16064;DHT22;8136;53.172;8.256;2023-10-13T00:55:41;15.40;99.90
16064;DHT22;8136;53.172;8.256;2023-10-13T00:58:51;15.50;99.90
16064;DHT22;8136;53.172;8.256;2023-10-13T01:01:36;15.50;99.90
16064;DHT22;8136;53.172;8.256;2023-10-13T01:04:36;15.60;99.90
16064;DHT22;8136;53.172;8.256;2023-10-13T01:10:59;15.70;99.90
16064;DHT22;8136;53.172;8.256;2023-10-13T01:13:43;15.70;99.90
16064;DHT22;8136;53.172;8.256;2023-10-13T01:16:54;15.70;99.90
16064;DHT22;8136;53.172;8.256;2023-10-13T01:25:40;15.80;99.90
16064;DHT22;8136;53.172;8.256;2023-10-13T01:28:39;15.80;99.90
16064;DHT22;8136;53.172;8.256;2023-10-13T01:31:27;15.90;99.90
16064;DHT22;8136;53.172;8.256;2023-10-13T01:34:28;15.90;99.90
16064;DHT22;8136;53.172;8.256;2023-10-13T01:37:01;16.00;99.90
16064;DHT22;8136;53.172;8.256;2023-10-13T01:39:41;16.00;99.90
16064;DHT22;8136;53.172;8.256;2023-10-13T01:42:23;16.00;99.90
16064;DHT22;8136;53.172;8.256;2023-10-13T01:45:06;16.00;99.90
16064;DHT22;8136;53.172;8.256;2023-10-13T02:43:30;16.40;99.90
16064;DHT22;8136;53.172;8.256;2023-10-13T02:50:24;16.40;99.90
16064;DHT22;8136;53.172;8.256;2023-10-13T03:53:27;16.80;99.90
16064;DHT22;8136;53.172;8.256;2023-10-13T05:48:08;16.80;99.90
16064;DHT22;8136;53.172;8.256;2023-10-13T05:50:48;16.70;99.90
16064;DHT22;8136;53.172;8.256;2023-10-13T05:53:49;16.80;99.90
16064;DHT22;8136;53.172;8.256;2023-10-13T05:56:37;16.80;99.90
16064;DHT22;8136;53.172;8.256;2023-10-13T05:59:34;16.80;99.90
16064;DHT22;8136;53.172;8.256;2023-10-13T06:02:45;16.80;99.90
16064;DHT22;8136;53.172;8.256;2023-10-13T06:12:38;16.70;99.90
16064;DHT22;8136;53.172;8.256;2023-10-13T06:15:41;16.70;99.90
16064;DHT22;8136;53.172;8.256;2023-10-13T06:26:16;16.70;99.90
16064;DHT22;8136;53.172;8.256;2023-10-13T06:39:05;16.80;99.90
16064;DHT22;8136;53.172;8.256;2023-10-13T06:53:38;16.70;99.90
16064;DHT22;8136;53.172;8.256;2023-10-13T07:29:13;16.70;99.90
16064;DHT22;8136;53.172;8.256;2023-10-13T07:31:40;16.80;99.90
16064;DHT22;8136;53.172;8.256;2023-10-13T07:34:10;16.70;99.90
16064;DHT22;8136;53.172;8.256;2023-10-13T07:36:52;16.70;99.90
16064;DHT22;8136;53.172;8.256;2023-10-13T07:39:20;16.80;99.90
16064;DHT22;8136;53.172;8.256;2023-10-13T07:41:49;16.70;99.90
16064;DHT22;8136;53.172;8.256;2023-10-13T07:44:21;16.80;99.90
16064;DHT22;8136;53.172;8.256;2023-10-13T07:46:51;16.80;99.90
16064;DHT22;8136;53.172;8.256;2023-10-13T07:49:30;16.80;99.90
16064;DHT22;8136;53.172;8.256;2023-10-13T07:52:04;16.80;99.90
16064;DHT22;8136;53.172;8.256;2023-10-13T07:54:50;16.80;99.90
16064;DHT22;8136;53.172;8.256;2023-10-13T07:57:25;16.90;99.90
16064;DHT22;8136;53.172;8.256;2023-10-13T07:59:56;16.90;99.90
16064;DHT22;8136;53.172;8.256;2023-10-13T08:02:36;16.90;99.90
16064;DHT22;8136;53.172;8.256;2023-10-13T08:05:15;16.90;99.90
16064;DHT22;8136;53.172;8.256;2023-10-13T08:07:53;17.00;99.90
16064;DHT22;8136;53.172;8.256;2023-10-13T08:10:21;17.00;99.90
16064;DHT22;8136;53.172;8.256;2023-10-13T08:12:55;17.10;99.90
16064;DHT22;8136;53.172;8.256;2023-10-13T08:15:25;17.10;99.90
16064;DHT22;8136;53.172;8.256;2023-10-13T08:17:59;17.20;99.90
16064;DHT22;8136;53.172;8.256;2023-10-13T08:20:55;17.20;99.90
16064;DHT22;8136;53.172;8.256;2023-10-13T08:23:28;17.30;99.90
16064;DHT22;8136;53.172;8.256;2023-10-13T08:26:28;17.30;99.90
16064;DHT22;8136;53.172;8.256;2023-10-13T08:29:12;17.30;99.90
16064;DHT22;8136;53.172;8.256;2023-10-13T08:32:13;17.30;99.90
16064;DHT22;8136;53.172;8.256;2023-10-13T08:38:23;17.40;99.90
16064;DHT22;8136;53.172;8.256;2023-10-13T08:40:58;17.40;99.90
16064;DHT22;8136;53.172;8.256;2023-10-13T08:43:42;17.40;99.90
16064;DHT22;8136;53.172;8.256;2023-10-13T08:46:11;17.40;99.90
16064;DHT22;8136;53.172;8.256;2023-10-13T08:52:04;17.40;99.90
16064;DHT22;8136;53.172;8.256;2023-10-13T08:54:53;17.40;99.90
16064;DHT22;8136;53.172;8.256;2023-10-13T08:57:39;17.40;99.90
16064;DHT22;8136;53.172;8.256;2023-10-13T09:00:09;17.40;99.90
16064;DHT22;8136;53.172;8.256;2023-10-13T09:03:14;17.40;99.90
16064;DHT22;8136;53.172;8.256;2023-10-13T09:05:54;17.40;99.90
16064;DHT22;8136;53.172;8.256;2023-10-13T09:08:33;17.40;99.90
16064;DHT22;8136;53.172;8.256;2023-10-13T09:11:10;17.40;99.90
16064;DHT22;8136;53.172;8.256;2023-10-13T09:13:38;17.40;99.90
16064;DHT22;8136;53.172;8.256;2023-10-13T09:16:11;17.40;99.90
16064;DHT22;8136;53.172;8.256;2023-10-13T09:19:09;17.40;99.90
16064;DHT22;8136;53.172;8.256;2023-10-13T09:21:38;17.50;99.90
16064;DHT22;8136;53.172;8.256;2023-10-13T09:24:14;17.40;99.90
16064;DHT22;8136;53.172;8.256;2023-10-13T09:26:47;17.50;99.90
16064;DHT22;8136;53.172;8.256;2023-10-13T09:29:18;17.50;99.90
16064;DHT22;8136;53.172;8.256;2023-10-13T09:31:46;17.60;99.90
16064;DHT22;8136;53.172;8.256;2023-10-13T09:34:21;17.70;99.90
16064;DHT22;8136;53.172;8.256;2023-10-13T09:36:49;17.70;99.90
16064;DHT22;8136;53.172;8.256;2023-10-13T09:39:24;17.70;99.90
16064;DHT22;8136;53.172;8.256;2023-10-13T09:42:06;17.70;99.90
16064;DHT22;8136;53.172;8.256;2023-10-13T09:44:36;17.70;99.90
16064;DHT22;8136;53.172;8.256;2023-10-13T09:47:10;17.80;99.90
16064;DHT22;8136;53.172;8.256;2023-10-13T09:49:44;17.90;99.90
16064;DHT22;8136;53.172;8.256;2023-10-13T09:52:15;17.90;99.90
16064;DHT22;8136;53.172;8.256;2023-10-13T09:54:55;17.90;99.90
16064;DHT22;8136;53.172;8.256;2023-10-13T09:57:28;18.00;99.90
16064;DHT22;8136;53.172;8.256;2023-10-13T10:00:24;18.00;99.90
16064;DHT22;8136;53.172;8.256;2023-10-13T11:09:11;19.40;99.90
16064;DHT22;8136;53.172;8.256;2023-10-13T11:11:57;19.40;99.90
16064;DHT22;8136;53.172;8.256;2023-10-13T11:14:40;19.40;99.90
16064;DHT22;8136;53.172;8.256;2023-10-13T11:17:07;19.50;99.90
16064;DHT22;8136;53.172;8.256;2023-10-13T11:19:46;19.50;99.90
16064;DHT22;8136;53.172;8.256;2023-10-13T11:22:15;19.60;99.90
16064;DHT22;8136;53.172;8.256;2023-10-13T11:25:00;19.70;99.90
16064;DHT22;8136;53.172;8.256;2023-10-13T11:27:35;19.70;99.90
16064;DHT22;8136;53.172;8.256;2023-10-13T11:30:22;19.70;99.90
16064;DHT22;8136;53.172;8.256;2023-10-13T11:32:59;19.70;99.90
16064;DHT22;8136;53.172;8.256;2023-10-13T11:35:26;19.80;99.90
16064;DHT22;8136;53.172;8.256;2023-10-13T11:38:14;19.80;99.90
16064;DHT22;8136;53.172;8.256;2023-10-13T11:40:55;19.80;99.90
16064;DHT22;8136;53.172;8.256;2023-10-13T11:43:38;19.80;99.90
16064;DHT22;8136;53.172;8.256;2023-10-13T11:46:38;19.80;99.90
16064;DHT22;8136;53.172;8.256;2023-10-13T11:49:22;19.80;99.90
16064;DHT22;8136;53.172;8.256;2023-10-13T11:52:03;19.80;99.90
16064;DHT22;8136;53.172;8.256;2023-10-13T11:54:42;19.80;99.90
16064;DHT22;8136;53.172;8.256;2023-10-13T11:57:10;19.90;99.90
16064;DHT22;8136;53.172;8.256;2023-10-13T11:59:37;19.90;99.90
16064;DHT22;8136;53.172;8.256;2023-10-13T12:02:11;19.90;99.90
16064;DHT22;8136;53.172;8.256;2023-10-13T12:04:56;19.90;99.90
16064;DHT22;8136;53.172;8.256;2023-10-13T12:07:24;20.10;99.90
16064;DHT22;8136;53.172;8.256;2023-10-13T12:10:06;20.00;99.90
16064;DHT22;8136;53.172;8.256;2023-10-13T12:12:43;20.10;99.90
16064;DHT22;8136;53.172;8.256;2023-10-13T12:15:12;20.20;99.90
16064;DHT22;8136;53.172;8.256;2023-10-13T12:17:51;20.20;99.90
16064;DHT22;8136;53.172;8.256;2023-10-13T12:20:19;20.30;99.90
16064;DHT22;8136;53.172;8.256;2023-10-13T12:22:59;20.30;99.90
16064;DHT22;8136;53.172;8.256;2023-10-13T12:25:40;20.40;99.90
16064;DHT22;8136;53.172;8.256;2023-10-13T12:32:01;20.40;99.90
16064;DHT22;8136;53.172;8.256;2023-10-13T12:34:34;20.50;99.90
16064;DHT22;8136;53.172;8.256;2023-10-13T12:37:24;20.60;99.90
16064;DHT22;8136;53.172;8.256;2023-10-13T12:40:05;20.60;99.90
16064;DHT22;8136;53.172;8.256;2023-10-13T12:42:52;20.60;99.90
16064;DHT22;8136;53.172;8.256;2023-10-13T12:45:38;20.70;99.90
16064;DHT22;8136;53.172;8.256;2023-10-13T12:48:28;20.80;99.90
16064;DHT22;8136;53.172;8.256;2023-10-13T12:51:13;20.70;99.90
16064;DHT22;8136;53.172;8.256;2023-10-13T12:53:46;20.80;99.90
16064;DHT22;8136;53.172;8.256;2023-10-13T12:56:16;20.80;99.90
16064;DHT22;8136;53.172;8.256;2023-10-13T12:58:43;20.80;99.90
16064;DHT22;8136;53.172;8.256;2023-10-13T13:01:17;20.70;99.90
16064;DHT22;8136;53.172;8.256;2023-10-13T13:03:47;20.70;99.90
16064;DHT22;8136;53.172;8.256;2023-10-13T13:06:16;20.70;99.90
16064;DHT22;8136;53.172;8.256;2023-10-13T13:29:11;20.60;99.90
16064;DHT22;8136;53.172;8.256;2023-10-13T13:31:41;20.60;99.90
16064;DHT22;8136;53.172;8.256;2023-10-13T13:34:09;20.60;99.90
16064;DHT22;8136;53.172;8.256;2023-10-13T13:36:38;20.70;99.90
16064;DHT22;8136;53.172;8.256;2023-10-13T15:29:18;21.00;99.90
16064;DHT22;8136;53.172;8.256;2023-10-13T15:31:51;21.00;99.90
16064;DHT22;8136;53.172;8.256;2023-10-13T15:34:34;20.80;99.90
16064;DHT22;8136;53.172;8.256;2023-10-13T15:37:29;20.50;99.90
16064;DHT22;8136;53.172;8.256;2023-10-13T16:54:58;18.60;99.90
16064;DHT22;8136;53.172;8.256;2023-10-13T16:57:25;18.70;99.90
16064;DHT22;8136;53.172;8.256;2023-10-13T16:59:52;18.70;99.90
16064;DHT22;8136;53.172;8.256;2023-10-13T17:02:20;18.80;99.90
16064;DHT22;8136;53.172;8.256;2023-10-13T17:04:47;18.80;99.90
16064;DHT22;8136;53.172;8.256;2023-10-13T17:07:14;18.80;99.90
16064;DHT22;8136;53.172;8.256;2023-10-13T17:09:41;18.80;99.90
16064;DHT22;8136;53.172;8.256;2023-10-13T17:12:12;18.90;99.90
16064;DHT22;8136;53.172;8.256;2023-10-13T17:14:39;18.90;99.90
16064;DHT22;8136;53.172;8.256;2023-10-13T17:17:06;18.90;99.90
16064;DHT22;8136;53.172;8.256;2023-10-13T17:19:34;18.90;99.90
16064;DHT22;8136;53.172;8.256;2023-10-13T17:22:00;19.00;99.90
16064;DHT22;8136;53.172;8.256;2023-10-13T17:24:29;19.00;99.90
16064;DHT22;8136;53.172;8.256;2023-10-13T17:26:57;19.00;99.90
16064;DHT22;8136;53.172;8.256;2023-10-13T17:29:27;19.00;99.90
16064;DHT22;8136;53.172;8.256;2023-10-13T17:31:55;19.00;99.90
16064;DHT22;8136;53.172;8.256;2023-10-13T17:34:24;19.00;99.90
16064;DHT22;8136;53.172;8.256;2023-10-13T17:36:51;19.00;99.90
16064;DHT22;8136;53.172;8.256;2023-10-13T17:39:19;19.00;99.90
16064;DHT22;8136;53.172;8.256;2023-10-13T17:41:46;19.00;99.90
16064;DHT22;8136;53.172;8.256;2023-10-13T17:44:13;19.00;99.90
16064;DHT22;8136;53.172;8.256;2023-10-13T17:46:44;19.00;99.90
16064;DHT22;8136;53.172;8.256;2023-10-13T17:49:10;19.00;99.90
16064;DHT22;8136;53.172;8.256;2023-10-13T17:51:37;19.00;99.90
16064;DHT22;8136;53.172;8.256;2023-10-13T17:54:04;19.00;99.90
16064;DHT22;8136;53.172;8.256;2023-10-13T17:56:31;19.00;99.90
16064;DHT22;8136;53.172;8.256;2023-10-13T17:58:58;19.10;99.90
16064;DHT22;8136;53.172;8.256;2023-10-13T18:01:25;19.10;99.90
16064;DHT22;8136;53.172;8.256;2023-10-13T18:03:58;19.10;99.90
16064;DHT22;8136;53.172;8.256;2023-10-13T18:06:30;19.10;99.90
16064;DHT22;8136;53.172;8.256;2023-10-13T18:08:57;19.10;99.90
16064;DHT22;8136;53.172;8.256;2023-10-13T18:11:24;19.10;99.90
16064;DHT22;8136;53.172;8.256;2023-10-13T18:13:53;19.10;99.90
16064;DHT22;8136;53.172;8.256;2023-10-13T18:16:22;19.10;99.90
16064;DHT22;8136;53.172;8.256;2023-10-13T18:18:50;19.10;99.90
16064;DHT22;8136;53.172;8.256;2023-10-13T18:21:20;19.10;99.90
16064;DHT22;8136;53.172;8.256;2023-10-13T18:23:48;19.10;99.90
16064;DHT22;8136;53.172;8.256;2023-10-13T18:26:15;19.00;99.90
16064;DHT22;8136;53.172;8.256;2023-10-13T18:28:45;19.00;99.90
16064;DHT22;8136;53.172;8.256;2023-10-13T18:31:12;18.90;99.90
16064;DHT22;8136;53.172;8.256;2023-10-13T18:33:40;18.90;99.90
16064;DHT22;8136;53.172;8.256;2023-10-13T18:36:12;18.90;99.90
16064;DHT22;8136;53.172;8.256;2023-10-13T18:38:40;18.90;99.90
16064;DHT22;8136;53.172;8.256;2023-10-13T18:41:08;18.80;99.90
16064;DHT22;8136;53.172;8.256;2023-10-13T18:43:37;18.80;99.90
16064;DHT22;8136;53.172;8.256;2023-10-13T18:46:07;18.80;99.90
16064;DHT22;8136;53.172;8.256;2023-10-13T18:48:35;18.80;99.90
16064;DHT22;8136;53.172;8.256;2023-10-13T18:51:06;18.80;99.90
16064;DHT22;8136;53.172;8.256;2023-10-13T18:53:33;18.80;99.90
16064;DHT22;8136;53.172;8.256;2023-10-13T18:56:08;18.90;99.90
16064;DHT22;8136;53.172;8.256;2023-10-13T18:58:37;18.90;99.90
16064;DHT22;8136;53.172;8.256;2023-10-13T19:01:09;18.90;99.90
16064;DHT22;8136;53.172;8.256;2023-10-13T19:03:38;19.00;99.90
16064;DHT22;8136;53.172;8.256;2023-10-13T19:06:05;19.10;99.90
16064;DHT22;8136;53.172;8.256;2023-10-13T19:08:32;19.10;99.90
16064;DHT22;8136;53.172;8.256;2023-10-13T19:11:02;19.10;99.90
16064;DHT22;8136;53.172;8.256;2023-10-13T19:13:31;19.20;99.90
16064;DHT22;8136;53.172;8.256;2023-10-13T19:15:58;19.30;99.90
16064;DHT22;8136;53.172;8.256;2023-10-13T19:18:26;19.30;99.90
16064;DHT22;8136;53.172;8.256;2023-10-13T19:20:57;19.30;99.90
16064;DHT22;8136;53.172;8.256;2023-10-13T19:23:24;19.40;99.90
16064;DHT22;8136;53.172;8.256;2023-10-13T19:25:58;19.30;99.90
16064;DHT22;8136;53.172;8.256;2023-10-13T19:28:25;19.30;99.90
16064;DHT22;8136;53.172;8.256;2023-10-13T19:30:57;19.20;99.90
16064;DHT22;8136;53.172;8.256;2023-10-13T19:33:27;19.10;99.90
16064;DHT22;8136;53.172;8.256;2023-10-13T19:35:57;19.00;99.90
16064;DHT22;8136;53.172;8.256;2023-10-13T19:38:23;18.90;99.90
16064;DHT22;8136;53.172;8.256;2023-10-13T19:40:54;18.90;99.90
16064;DHT22;8136;53.172;8.256;2023-10-13T19:43:23;18.70;99.90
16064;DHT22;8136;53.172;8.256;2023-10-13T19:45:55;18.70;99.90
16064;DHT22;8136;53.172;8.256;2023-10-13T19:48:30;18.70;99.90
16064;DHT22;8136;53.172;8.256;2023-10-13T19:51:15;18.70;99.90
16064;DHT22;8136;53.172;8.256;2023-10-13T19:54:00;18.60;99.90
16064;DHT22;8136;53.172;8.256;2023-10-13T19:56:28;18.60;99.90
16064;DHT22;8136;53.172;8.256;2023-10-13T19:58:59;18.60;99.90
16064;DHT22;8136;53.172;8.256;2023-10-13T20:01:34;18.60;99.90
16064;DHT22;8136;53.172;8.256;2023-10-13T20:04:01;18.60;99.90
16064;DHT22;8136;53.172;8.256;2023-10-13T20:06:39;18.60;99.90
16064;DHT22;8136;53.172;8.256;2023-10-13T20:09:17;18.60;99.90
16064;DHT22;8136;53.172;8.256;2023-10-13T20:11:56;18.50;99.90
16064;DHT22;8136;53.172;8.256;2023-10-13T20:14:28;18.50;99.90
16064;DHT22;8136;53.172;8.256;2023-10-13T20:16:59;18.50;99.90
16064;DHT22;8136;53.172;8.256;2023-10-13T20:19:26;18.50;99.90
16064;DHT22;8136;53.172;8.256;2023-10-13T20:21:56;18.50;99.90
16064;DHT22;8136;53.172;8.256;2023-10-13T20:24:29;18.50;99.90
16064;DHT22;8136;53.172;8.256;2023-10-13T20:26:59;18.50;99.90
16064;DHT22;8136;53.172;8.256;2023-10-13T20:29:27;18.50;99.90
16064;DHT22;8136;53.172;8.256;2023-10-13T20:31:58;18.50;99.90
16064;DHT22;8136;53.172;8.256;2023-10-13T20:34:31;18.40;99.90
16064;DHT22;8136;53.172;8.256;2023-10-13T20:36:59;18.40;99.90
16064;DHT22;8136;53.172;8.256;2023-10-13T20:39:26;18.30;99.90
16064;DHT22;8136;53.172;8.256;2023-10-13T20:42:00;18.10;99.90
16064;DHT22;8136;53.172;8.256;2023-10-13T20:44:31;18.00;99.90
16064;DHT22;8136;53.172;8.256;2023-10-13T20:47:04;17.90;99.90
16064;DHT22;8136;53.172;8.256;2023-10-13T20:49:44;17.80;99.90
16064;DHT22;8136;53.172;8.256;2023-10-13T20:52:12;17.80;99.90
16064;DHT22;8136;53.172;8.256;2023-10-13T20:54:42;17.80;99.90
16064;DHT22;8136;53.172;8.256;2023-10-13T20:57:10;17.70;99.90
16064;DHT22;8136;53.172;8.256;2023-10-13T21:02:55;17.70;99.90
16064;DHT22;8136;53.172;8.256;2023-10-13T21:05:48;17.70;99.90
16064;DHT22;8136;53.172;8.256;2023-10-13T21:08:18;17.70;99.90
16064;DHT22;8136;53.172;8.256;2023-10-13T21:10:52;17.70;99.90
16064;DHT22;8136;53.172;8.256;2023-10-13T21:13:21;17.70;99.90
16064;DHT22;8136;53.172;8.256;2023-10-13T21:16:11;17.70;99.90
16064;DHT22;8136;53.172;8.256;2023-10-13T21:18:44;17.80;99.90
16064;DHT22;8136;53.172;8.256;2023-10-13T21:21:35;17.80;99.90
16064;DHT22;8136;53.172;8.256;2023-10-13T21:27:27;17.80;99.90
16064;DHT22;8136;53.172;8.256;2023-10-13T21:29:59;17.70;99.90
16064;DHT22;8136;53.172;8.256;2023-10-13T21:33:23;17.80;99.90
16064;DHT22;8136;53.172;8.256;2023-10-13T21:36:05;17.80;99.90
16064;DHT22;8136;53.172;8.256;2023-10-13T21:38:48;17.80;99.90
16064;DHT22;8136;53.172;8.256;2023-10-13T21:41:17;17.80;99.90
16064;DHT22;8136;53.172;8.256;2023-10-13T21:44:01;17.80;99.90
16064;DHT22;8136;53.172;8.256;2023-10-13T21:46:29;17.80;99.90
16064;DHT22;8136;53.172;8.256;2023-10-13T21:49:02;17.80;99.90
16064;DHT22;8136;53.172;8.256;2023-10-13T21:51:44;17.80;99.90
16064;DHT22;8136;53.172;8.256;2023-10-13T21:54:26;17.80;99.90
16064;DHT22;8136;53.172;8.256;2023-10-13T21:56:53;17.90;99.90
16064;DHT22;8136;53.172;8.256;2023-10-13T21:59:20;17.90;99.90
16064;DHT22;8136;53.172;8.256;2023-10-13T22:01:47;17.90;99.90
16064;DHT22;8136;53.172;8.256;2023-10-13T22:04:14;17.90;99.90
16064;DHT22;8136;53.172;8.256;2023-10-13T22:06:48;18.00;99.90
16064;DHT22;8136;53.172;8.256;2023-10-13T22:09:15;18.00;99.90
16064;DHT22;8136;53.172;8.256;2023-10-13T22:11:43;18.00;99.90
16064;DHT22;8136;53.172;8.256;2023-10-13T22:14:10;18.00;99.90
16064;DHT22;8136;53.172;8.256;2023-10-13T22:16:38;18.00;99.90
16064;DHT22;8136;53.172;8.256;2023-10-13T22:19:05;18.00;99.90
16064;DHT22;8136;53.172;8.256;2023-10-13T22:21:31;18.00;99.90
16064;DHT22;8136;53.172;8.256;2023-10-13T22:23:59;17.90;99.90
16064;DHT22;8136;53.172;8.256;2023-10-13T22:26:42;17.90;99.90
16064;DHT22;8136;53.172;8.256;2023-10-13T22:29:09;17.80;99.90
16064;DHT22;8136;53.172;8.256;2023-10-13T22:31:37;17.70;99.90
16064;DHT22;8136;53.172;8.256;2023-10-13T22:34:07;17.70;99.90
16064;DHT22;8136;53.172;8.256;2023-10-13T22:36:34;17.60;99.90
16064;DHT22;8136;53.172;8.256;2023-10-13T22:39:05;17.40;99.90
16064;DHT22;8136;53.172;8.256;2023-10-13T22:41:41;17.30;99.90
16064;DHT22;8136;53.172;8.256;2023-10-13T22:44:15;17.10;99.90
16064;DHT22;8136;53.172;8.256;2023-10-13T22:46:44;17.00;99.90
16064;DHT22;8136;53.172;8.256;2023-10-13T22:49:12;16.80;99.90
16064;DHT22;8136;53.172;8.256;2023-10-13T22:51:40;16.70;99.90
16064;DHT22;8136;53.172;8.256;2023-10-13T22:54:09;16.60;99.90
16064;DHT22;8136;53.172;8.256;2023-10-13T22:56:37;16.70;99.90
16064;DHT22;8136;53.172;8.256;2023-10-13T22:59:06;16.30;99.90
16064;DHT22;8136;53.172;8.256;2023-10-13T23:01:37;15.90;99.90
16064;DHT22;8136;53.172;8.256;2023-10-13T23:04:08;15.80;99.90
16064;DHT22;8136;53.172;8.256;2023-10-13T23:06:40;15.60;99.90
16064;DHT22;8136;53.172;8.256;2023-10-13T23:09:13;15.40;99.90
16064;DHT22;8136;53.172;8.256;2023-10-13T23:11:42;15.30;99.90
16064;DHT22;8136;53.172;8.256;2023-10-13T23:14:13;15.20;99.90
16064;DHT22;8136;53.172;8.256;2023-10-13T23:16:44;15.20;99.90
16064;DHT22;8136;53.172;8.256;2023-10-13T23:19:12;15.20;99.90
16064;DHT22;8136;53.172;8.256;2023-10-13T23:21:38;15.10;99.90
16064;DHT22;8136;53.172;8.256;2023-10-13T23:24:06;15.10;99.90
16064;DHT22;8136;53.172;8.256;2023-10-13T23:26:38;15.10;99.90
16064;DHT22;8136;53.172;8.256;2023-10-13T23:29:05;15.10;99.90
16064;DHT22;8136;53.172;8.256;2023-10-13T23:31:35;15.10;99.90
16064;DHT22;8136;53.172;8.256;2023-10-13T23:34:02;15.10;99.90
16064;DHT22;8136;53.172;8.256;2023-10-13T23:36:31;15.00;99.90
16064;DHT22;8136;53.172;8.256;2023-10-13T23:38:57;15.10;99.90
16064;DHT22;8136;53.172;8.256;2023-10-13T23:41:25;15.10;99.90
16064;DHT22;8136;53.172;8.256;2023-10-13T23:43:55;15.10;99.90
16064;DHT22;8136;53.172;8.256;2023-10-13T23:46:25;15.10;99.90
16064;DHT22;8136;53.172;8.256;2023-10-13T23:48:53;15.00;99.90
16064;DHT22;8136;53.172;8.256;2023-10-13T23:51:21;15.00;99.90
16064;DHT22;8136;53.172;8.256;2023-10-13T23:53:52;15.00;99.90
16064;DHT22;8136;53.172;8.256;2023-10-13T23:56:19;15.00;99.90
16064;DHT22;8136;53.172;8.256;2023-10-13T23:58:56;15.00;99.90
